createdAt,value
2023-02-26T00:01:45.996Z,1.81
2023-02-26T00:04:35.438Z,1.84
2023-02-26T00:07:29.323Z,1.87
2023-02-26T00:10:19.377Z,1.83
2023-02-26T00:13:10.720Z,1.76
2023-02-26T00:16:02.981Z,1.77
2023-02-26T00:18:52.154Z,1.72
2023-02-26T00:21:43.538Z,1.69
2023-02-26T00:24:32.261Z,1.64
2023-02-26T00:27:21.813Z,1.63
2023-02-26T00:30:13.615Z,1.62
2023-02-26T00:33:04.448Z,1.63
2023-02-26T00:36:00.565Z,1.62
2023-02-26T00:39:04.751Z,1.63
2023-02-26T00:41:54.016Z,1.51
2023-02-26T00:44:44.843Z,1.48
2023-02-26T00:47:43.845Z,1.54
2023-02-26T00:50:35.857Z,1.48
2023-02-26T00:53:30.105Z,1.48
2023-02-26T00:56:19.568Z,1.41
2023-02-26T00:59:08.156Z,1.42
2023-02-26T01:01:58.565Z,1.43
2023-02-26T01:04:49.846Z,1.41
2023-02-26T01:07:43.865Z,1.42
2023-02-26T01:10:34.911Z,1.36
2023-02-26T01:13:24.012Z,1.35
2023-02-26T01:16:21.839Z,1.35
2023-02-26T01:19:19.081Z,1.36
2023-02-26T01:22:18.067Z,1.40
2023-02-26T01:25:10.324Z,1.43
2023-02-26T01:28:00.301Z,1.39
2023-02-26T01:30:49.457Z,1.38
2023-02-26T01:33:46.088Z,1.37
2023-02-26T01:36:41.546Z,1.36
2023-02-26T01:39:40.888Z,1.29
2023-02-26T01:42:36.426Z,1.24
2023-02-26T01:45:33.026Z,1.23
2023-02-26T01:48:35.884Z,1.22
2023-02-26T01:51:49.341Z,1.29
2023-02-26T01:54:40.408Z,1.22
2023-02-26T01:57:29.146Z,1.23
2023-02-26T02:00:19.740Z,1.20
2023-02-26T02:03:08.713Z,1.19
2023-02-26T02:06:03.818Z,1.21
2023-02-26T02:08:53.209Z,1.20
2023-02-26T02:12:01.422Z,1.20
2023-02-26T02:15:01.381Z,1.19
2023-02-26T02:17:57.792Z,1.18
2023-02-26T02:21:09.783Z,1.16
2023-02-26T02:24:07.281Z,0.98
2023-02-26T02:27:18.083Z,1.02
2023-02-26T02:30:22.126Z,0.94
2023-02-26T02:33:17.125Z,0.96
2023-02-26T02:36:11.711Z,0.96
2023-02-26T02:39:09.272Z,0.90
2023-02-26T02:42:03.985Z,0.88
2023-02-26T02:44:59.440Z,0.90
2023-02-26T02:47:54.072Z,0.86
2023-02-26T02:50:49.105Z,0.79
2023-02-26T02:53:41.111Z,0.80
2023-02-26T02:56:37.335Z,0.82
2023-02-26T02:59:39.229Z,0.79
2023-02-26T03:02:35.954Z,0.71
2023-02-26T03:05:27.423Z,0.78
2023-02-26T03:08:21.428Z,0.72
2023-02-26T03:11:11.458Z,0.64
2023-02-26T03:14:01.221Z,0.62
2023-02-26T03:17:19.894Z,0.65
2023-02-26T03:20:18.486Z,0.63
2023-02-26T03:23:15.282Z,0.59
2023-02-26T03:26:14.059Z,0.57
2023-02-26T03:29:10.152Z,0.51
2023-02-26T03:32:03.559Z,0.42
2023-02-26T03:35:00.773Z,0.40
2023-02-26T03:37:52.110Z,0.39
2023-02-26T03:40:45.620Z,0.35
2023-02-26T03:43:43.814Z,0.37
2023-02-26T03:46:37.680Z,0.31
2023-02-26T03:49:31.242Z,0.28
2023-02-26T03:52:24.025Z,0.23
2023-02-26T03:55:27.533Z,0.15
2023-02-26T03:58:23.141Z,0.12
2023-02-26T04:01:30.544Z,0.17
2023-02-26T04:04:25.704Z,0.08
2023-02-26T04:07:17.250Z,0.08
2023-02-26T04:10:08.921Z,0.03
2023-02-26T04:13:01.543Z,-0.06
2023-02-26T04:15:50.780Z,0.05
2023-02-26T04:18:41.171Z,0.08
2023-02-26T04:21:31.140Z,0.07
2023-02-26T04:24:19.809Z,0.11
2023-02-26T04:27:10.520Z,0.11
2023-02-26T04:29:59.181Z,0.08
2023-02-26T04:32:49.513Z,-0.03
2023-02-26T04:35:40.059Z,-0.04
2023-02-26T04:38:29.740Z,-0.03
2023-02-26T04:41:18.456Z,0.07
2023-02-26T04:44:10.355Z,0.09
2023-02-26T04:47:02.686Z,0.10
2023-02-26T04:49:53.274Z,0.09
2023-02-26T04:52:43.264Z,0.10
2023-02-26T04:55:32.596Z,0.08
2023-02-26T04:58:21.262Z,0.01
2023-02-26T05:01:10.983Z,0.02
2023-02-26T05:03:59.680Z,0.01
2023-02-26T05:06:48.759Z,-0.02
2023-02-26T05:09:38.743Z,0.04
2023-02-26T05:12:28.165Z,0.01
2023-02-26T05:15:16.870Z,0.02
2023-02-26T05:18:06.478Z,0.06
2023-02-26T05:20:56.252Z,-0.06
2023-02-26T05:23:44.887Z,-0.07
2023-02-26T05:26:35.689Z,-0.08
2023-02-26T05:29:24.399Z,-0.17
2023-02-26T05:32:15.032Z,-0.29
2023-02-26T05:35:03.783Z,-0.24
2023-02-26T05:37:52.917Z,-0.28
2023-02-26T05:40:41.545Z,-0.28
2023-02-26T05:43:34.555Z,-0.29
2023-02-26T05:46:23.478Z,-0.30
2023-02-26T05:49:13.008Z,-0.32
2023-02-26T05:52:02.275Z,-0.30
2023-02-26T05:54:51.296Z,-0.26
2023-02-26T05:57:40.152Z,-0.29
2023-02-26T06:00:31.371Z,-0.28
2023-02-26T06:03:21.030Z,-0.36
2023-02-26T06:06:09.970Z,-0.30
2023-02-26T06:08:59.058Z,-0.42
2023-02-26T06:11:47.666Z,-0.36
2023-02-26T06:14:38.389Z,-0.36
2023-02-26T06:17:28.630Z,-0.45
2023-02-26T06:20:20.022Z,-0.66
2023-02-26T06:23:08.685Z,-0.44
2023-02-26T06:26:00.238Z,-0.49
2023-02-26T06:28:48.853Z,-0.47
2023-02-26T06:31:38.326Z,-0.42
2023-02-26T06:34:29.438Z,-0.35
2023-02-26T06:37:18.070Z,-0.36
2023-02-26T06:40:11.139Z,-0.31
2023-02-26T06:43:00.463Z,-0.25
2023-02-26T06:45:50.110Z,-0.16
2023-02-26T06:48:38.711Z,-0.14
2023-02-26T06:51:31.319Z,-0.07
2023-02-26T06:54:19.955Z,-0.07
2023-02-26T06:57:09.545Z,-0.09
2023-02-26T06:59:58.177Z,0.01
2023-02-26T07:02:46.815Z,0.10
2023-02-26T07:05:35.465Z,0.18
2023-02-26T07:08:25.539Z,0.16
2023-02-26T07:11:14.729Z,0.28
2023-02-26T07:14:03.932Z,0.41
2023-02-26T07:16:52.561Z,0.41
2023-02-26T07:19:41.222Z,0.54
2023-02-26T07:22:29.868Z,0.62
2023-02-26T07:25:20.409Z,0.48
2023-02-26T07:28:09.250Z,0.64
2023-02-26T07:30:59.346Z,0.63
2023-02-26T07:33:48.016Z,0.70
2023-02-26T07:36:37.397Z,0.68
2023-02-26T07:39:26.701Z,0.65
2023-02-26T07:42:16.730Z,0.53
2023-02-26T07:45:07.621Z,0.61
2023-02-26T07:47:56.254Z,0.75
2023-02-26T07:50:45.851Z,0.90
2023-02-26T07:53:35.096Z,0.98
2023-02-26T07:56:25.218Z,1.00
2023-02-26T07:59:16.814Z,0.90
2023-02-26T08:02:05.606Z,1.21
2023-02-26T08:04:55.605Z,1.27
2023-02-26T08:07:44.348Z,1.40
2023-02-26T08:10:33.407Z,1.53
2023-02-26T08:13:22.666Z,1.62
2023-02-26T08:16:12.622Z,1.71
2023-02-26T08:19:03.072Z,1.68
2023-02-26T08:21:51.669Z,1.79
2023-02-26T08:24:41.390Z,1.78
2023-02-26T08:27:29.983Z,1.80
2023-02-26T08:30:19.810Z,1.89
2023-02-26T08:33:09.817Z,1.99
2023-02-26T08:35:59.430Z,2.11
2023-02-26T08:38:48.041Z,2.29
2023-02-26T08:41:37.245Z,2.45
2023-02-26T08:44:25.860Z,2.59
2023-02-26T08:47:19.146Z,2.70
2023-02-26T08:50:14.966Z,2.75
2023-02-26T08:53:03.713Z,2.79
2023-02-26T08:55:55.020Z,2.86
2023-02-26T08:58:44.254Z,2.64
2023-02-26T09:01:32.971Z,2.60
2023-02-26T09:04:23.253Z,2.57
2023-02-26T09:07:13.639Z,2.64
2023-02-26T09:10:02.718Z,2.84
2023-02-26T09:12:51.874Z,2.87
2023-02-26T09:15:41.534Z,2.87
2023-02-26T09:18:32.334Z,2.96
2023-02-26T09:21:21.358Z,2.96
2023-02-26T09:24:11.376Z,2.91
2023-02-26T09:27:03.852Z,2.68
2023-02-26T09:29:52.768Z,2.60
2023-02-26T09:32:41.434Z,2.63
2023-02-26T09:35:31.388Z,2.65
2023-02-26T09:38:21.730Z,2.69
2023-02-26T09:41:22.754Z,2.63
2023-02-26T09:44:20.367Z,2.62
2023-02-26T09:47:18.758Z,2.57
2023-02-26T09:50:14.475Z,2.44
2023-02-26T09:53:12.072Z,2.45
2023-02-26T09:56:05.760Z,2.47
2023-02-26T09:58:56.613Z,2.41
2023-02-26T10:01:54.211Z,2.44
2023-02-26T10:04:53.421Z,2.42
2023-02-26T10:07:48.089Z,2.38
2023-02-26T10:10:56.239Z,2.59
2023-02-26T10:13:57.756Z,3.38
2023-02-26T10:16:53.038Z,3.94
2023-02-26T10:19:46.002Z,4.27
2023-02-26T10:22:42.444Z,3.95
2023-02-26T10:25:37.093Z,4.00
2023-02-26T10:28:36.609Z,4.39
2023-02-26T10:31:34.340Z,4.82
2023-02-26T10:34:32.808Z,5.20
2023-02-26T10:37:41.864Z,5.46
2023-02-26T10:40:35.402Z,5.38
2023-02-26T10:43:29.896Z,5.74
2023-02-26T10:46:28.504Z,6.00
2023-02-26T10:49:51.851Z,5.96
2023-02-26T10:52:44.235Z,5.88
2023-02-26T10:55:41.270Z,6.09
2023-02-26T10:58:30.536Z,6.61
2023-02-26T11:01:21.871Z,6.60
2023-02-26T11:04:15.411Z,6.56
2023-02-26T11:07:07.381Z,6.38
2023-02-26T11:09:57.374Z,5.82
2023-02-26T11:12:47.186Z,5.55
2023-02-26T11:15:37.687Z,5.34
2023-02-26T11:18:30.840Z,5.35
2023-02-26T11:21:24.583Z,5.86
2023-02-26T11:24:20.512Z,6.21
2023-02-26T11:27:14.150Z,6.51
2023-02-26T11:30:08.410Z,6.71
2023-02-26T11:33:00.174Z,6.96
2023-02-26T11:35:49.784Z,6.86
2023-02-26T11:38:38.915Z,6.76
2023-02-26T11:41:09.055Z,6.97
2023-02-26T11:43:44.995Z,7.15
2023-02-26T11:46:15.222Z,7.66
2023-02-26T11:48:47.681Z,8.01
2023-02-26T11:51:20.269Z,7.95
2023-02-26T11:53:52.664Z,8.01
2023-02-26T11:56:28.210Z,8.15
2023-02-26T11:58:57.304Z,7.98
2023-02-26T12:01:29.525Z,7.57
2023-02-26T12:04:02.199Z,7.07
2023-02-26T12:06:31.946Z,6.50
2023-02-26T12:09:01.064Z,6.27
2023-02-26T12:12:00.194Z,5.96
2023-02-26T12:14:50.193Z,5.97
2023-02-26T12:17:33.269Z,5.81
2023-02-26T12:20:15.380Z,5.81
2023-02-26T12:22:54.913Z,6.14
2023-02-26T12:25:52.475Z,6.23
2023-02-26T12:28:54.106Z,5.76
2023-02-26T12:31:48.547Z,5.25
2023-02-26T12:34:34.440Z,5.08
2023-02-26T12:37:17.823Z,5.08
2023-02-26T12:39:58.503Z,5.11
2023-02-26T12:42:42.354Z,4.79
2023-02-26T12:45:35.072Z,4.79
2023-02-26T12:48:22.740Z,4.58
2023-02-26T12:51:03.179Z,4.68
2023-02-26T12:53:51.183Z,4.85
2023-02-26T12:56:52.262Z,4.82
2023-02-26T12:59:38.022Z,4.84
2023-02-26T13:02:29.024Z,4.65
2023-02-26T13:18:55.562Z,3.85
2023-02-26T13:25:49.192Z,3.67
2023-02-26T13:28:44.609Z,4.81
2023-02-26T13:31:17.124Z,6.47
2023-02-26T13:33:47.871Z,6.38
2023-02-26T13:36:17.561Z,6.03
2023-02-26T13:38:57.863Z,6.37
2023-02-26T13:41:35.950Z,6.91
2023-02-26T13:44:18.944Z,7.67
2023-02-26T13:50:46.949Z,7.40
2023-02-26T13:53:52.224Z,6.77
2023-02-26T13:56:48.868Z,6.18
2023-02-26T13:59:56.531Z,5.42
2023-02-26T14:02:51.074Z,5.39
2023-02-26T14:05:51.930Z,4.75
2023-02-26T14:08:44.345Z,6.14
2023-02-26T14:11:40.569Z,6.39
2023-02-26T14:14:25.545Z,7.09
2023-02-26T14:17:31.912Z,7.56
2023-02-26T14:20:23.899Z,8.09
2023-02-26T14:23:00.974Z,8.27
2023-02-26T14:25:35.972Z,8.46
2023-02-26T14:28:41.775Z,8.81
2023-02-26T14:31:18.052Z,8.76
2023-02-26T14:34:00.016Z,9.33
2023-02-26T14:36:36.364Z,9.30
2023-02-26T14:39:09.564Z,9.18
2023-02-26T14:41:41.385Z,9.51
2023-02-26T14:44:17.412Z,9.45
2023-02-26T14:46:46.807Z,9.60
2023-02-26T14:49:22.175Z,9.80
2023-02-26T14:52:04.707Z,9.54
2023-02-26T14:54:49.699Z,8.95
2023-02-26T14:57:27.067Z,9.02
2023-02-26T15:00:19.331Z,8.41
2023-02-26T15:03:09.907Z,8.16
2023-02-26T15:05:53.997Z,8.63
2023-02-26T15:08:50.169Z,8.90
2023-02-26T15:11:39.395Z,8.89
2023-02-26T15:14:42.833Z,8.74
2023-02-26T15:17:24.740Z,8.36
2023-02-26T15:20:05.572Z,8.10
2023-02-26T15:22:50.599Z,7.53
2023-02-26T15:25:28.914Z,7.17
2023-02-26T15:27:58.845Z,6.71
2023-02-26T15:30:28.593Z,6.54
2023-02-26T15:32:58.548Z,6.80
2023-02-26T15:35:30.944Z,7.07
2023-02-26T15:38:02.750Z,7.37
2023-02-26T15:40:35.345Z,7.17
2023-02-26T15:43:06.127Z,6.65
2023-02-26T15:45:38.252Z,6.37
2023-02-26T15:48:09.689Z,6.25
2023-02-26T15:50:42.167Z,6.24
2023-02-26T15:53:19.354Z,6.06
2023-02-26T15:55:50.700Z,5.90
2023-02-26T15:58:24.883Z,5.78
2023-02-26T16:00:55.068Z,5.58
2023-02-26T16:03:27.584Z,5.40
2023-02-26T16:05:56.843Z,5.15
2023-02-26T16:08:27.632Z,4.92
2023-02-26T16:10:58.965Z,4.73
2023-02-26T16:13:31.871Z,4.58
2023-02-26T16:16:04.582Z,4.40
2023-02-26T16:18:35.004Z,4.09
2023-02-26T16:21:07.207Z,3.98
2023-02-26T16:23:45.175Z,4.04
2023-02-26T16:26:18.223Z,3.92
2023-02-26T16:28:48.908Z,3.90
2023-02-26T16:31:21.353Z,3.85
2023-02-26T16:33:58.688Z,3.88
2023-02-26T16:36:31.115Z,3.74
2023-02-26T16:39:10.052Z,3.59
2023-02-26T16:41:41.412Z,3.62
2023-02-26T16:44:40.483Z,3.55
2023-02-26T16:47:11.481Z,3.29
2023-02-26T16:49:42.609Z,3.27
2023-02-26T16:52:17.889Z,3.31
2023-02-26T16:54:57.114Z,3.25
2023-02-26T16:57:29.556Z,3.00
2023-02-26T17:00:03.933Z,2.90
2023-02-26T17:02:36.200Z,2.73
2023-02-26T17:05:15.858Z,2.89
2023-02-26T17:07:49.818Z,2.86
2023-02-26T17:10:25.583Z,2.84
2023-02-26T17:13:03.094Z,2.76
2023-02-26T17:15:36.197Z,2.56
2023-02-26T17:18:04.816Z,2.55
2023-02-26T17:20:35.121Z,2.55
2023-02-26T17:23:09.238Z,2.49
2023-02-26T17:25:43.875Z,2.43
2023-02-26T17:28:16.957Z,2.35
2023-02-26T17:30:46.277Z,2.46
2023-02-26T17:33:15.348Z,2.45
2023-02-26T17:35:44.802Z,2.39
2023-02-26T17:38:15.207Z,2.29
2023-02-26T17:40:47.989Z,2.09
2023-02-26T17:43:16.756Z,1.97
2023-02-26T17:45:45.636Z,2.13
2023-02-26T17:48:16.372Z,2.12
2023-02-26T17:50:48.104Z,2.06
2023-02-26T17:53:21.294Z,2.03
2023-02-26T17:55:53.414Z,2.01
2023-02-26T17:58:28.991Z,1.96
2023-02-26T18:00:57.429Z,2.10
2023-02-26T18:03:26.524Z,2.08
2023-02-26T18:05:56.537Z,1.99
2023-02-26T18:08:27.689Z,1.94
2023-02-26T18:10:58.449Z,1.83
2023-02-26T18:13:28.551Z,1.84
2023-02-26T18:15:59.251Z,1.92
2023-02-26T18:18:28.233Z,1.91
2023-02-26T18:20:57.606Z,1.88
2023-02-26T18:23:26.382Z,1.84
2023-02-26T18:25:57.459Z,1.87
2023-02-26T18:28:28.750Z,1.78
2023-02-26T18:30:58.958Z,1.77
2023-02-26T18:33:27.610Z,1.81
2023-02-26T18:35:58.866Z,1.78
2023-02-26T18:38:29.140Z,1.85
2023-02-26T18:41:01.905Z,1.88
2023-02-26T18:43:31.016Z,1.84
2023-02-26T18:46:01.969Z,1.86
2023-02-26T18:48:31.240Z,1.83
2023-02-26T18:50:59.863Z,1.87
2023-02-26T18:53:29.047Z,1.82
2023-02-26T18:55:58.819Z,1.80
2023-02-26T18:58:27.731Z,1.79
2023-02-26T19:00:56.792Z,1.81
2023-02-26T19:03:25.835Z,1.70
2023-02-26T19:05:59.093Z,1.61
2023-02-26T19:08:27.889Z,1.63
2023-02-26T19:10:56.366Z,1.64
2023-02-26T19:13:27.098Z,1.57
2023-02-26T19:15:56.190Z,1.74
2023-02-26T19:18:25.144Z,1.71
2023-02-26T19:20:53.562Z,1.68
2023-02-26T19:23:21.894Z,1.73
2023-02-26T19:25:52.103Z,1.73
2023-02-26T19:28:20.583Z,1.75
2023-02-26T19:30:50.576Z,1.73
2023-02-26T19:33:20.357Z,1.64
2023-02-26T19:35:48.923Z,1.67
2023-02-26T19:38:17.812Z,1.66
2023-02-26T19:40:46.492Z,1.63
2023-02-26T19:43:15.458Z,1.64
2023-02-26T19:45:43.875Z,1.73
2023-02-26T19:48:13.563Z,1.74
2023-02-26T19:50:41.966Z,1.74
2023-02-26T19:53:10.372Z,1.62
2023-02-26T19:55:39.789Z,1.61
2023-02-26T19:58:08.378Z,1.58
2023-02-26T20:00:37.716Z,1.56
2023-02-26T20:03:06.092Z,1.59
2023-02-26T20:05:37.854Z,1.28
2023-02-26T20:08:06.723Z,1.46
2023-02-26T20:10:35.474Z,1.49
2023-02-26T20:13:03.795Z,1.50
2023-02-26T20:15:33.654Z,1.48
2023-02-26T20:18:02.041Z,1.62
2023-02-26T20:20:30.866Z,1.65
2023-02-26T20:23:00.826Z,1.66
2023-02-26T20:25:30.658Z,1.63
2023-02-26T20:27:58.987Z,1.62
2023-02-26T20:30:28.158Z,1.55
2023-02-26T20:32:56.791Z,1.50
2023-02-26T20:35:25.789Z,1.46
2023-02-26T20:37:54.164Z,1.48
2023-02-26T20:40:24.496Z,1.51
2023-02-26T20:42:53.797Z,1.44
2023-02-26T20:45:22.242Z,1.33
2023-02-26T20:47:51.411Z,1.33
2023-02-26T20:50:20.956Z,1.27
2023-02-26T20:52:49.358Z,1.28
2023-02-26T20:55:20.506Z,1.33
2023-02-26T20:57:51.025Z,1.32
2023-02-26T21:00:20.435Z,1.28
2023-02-26T21:02:49.079Z,1.22
2023-02-26T21:05:18.457Z,1.24
2023-02-26T21:07:47.284Z,1.18
2023-02-26T21:10:18.270Z,1.11
2023-02-26T21:12:47.710Z,1.16
2023-02-26T21:15:18.404Z,1.17
2023-02-26T21:17:46.905Z,1.18
2023-02-26T21:20:18.330Z,1.12
2023-02-26T21:22:47.373Z,1.09
2023-02-26T21:25:16.781Z,1.05
2023-02-26T21:27:45.369Z,1.09
2023-02-26T21:30:14.733Z,1.07
2023-02-26T21:32:44.763Z,1.05
2023-02-26T21:35:16.423Z,1.08
2023-02-26T21:37:45.390Z,1.12
2023-02-26T21:40:16.214Z,1.16
2023-02-26T21:42:46.557Z,1.08
2023-02-26T21:45:14.965Z,1.18
2023-02-26T21:47:45.562Z,1.12
2023-02-26T21:50:13.897Z,1.10
2023-02-26T21:52:43.154Z,1.05
2023-02-26T21:55:12.460Z,1.08
2023-02-26T21:57:41.599Z,1.08
2023-02-26T22:00:12.119Z,1.08
2023-02-26T22:02:42.822Z,1.15
2023-02-26T22:05:15.200Z,1.15
2023-02-26T22:07:44.456Z,1.16
2023-02-26T22:10:14.746Z,1.19
2023-02-26T22:12:43.104Z,1.15
2023-02-26T22:15:12.258Z,1.02
2023-02-26T22:17:40.615Z,0.97
2023-02-26T22:20:14.372Z,0.95
2023-02-26T22:22:44.545Z,0.97
2023-02-26T22:25:14.388Z,0.95
2023-02-26T22:27:43.204Z,1.00
2023-02-26T22:30:13.359Z,1.01
2023-02-26T22:32:43.762Z,0.99
2023-02-26T22:35:14.451Z,1.03
2023-02-26T22:37:44.657Z,1.10
2023-02-26T22:40:14.499Z,1.05
2023-02-26T22:42:45.186Z,1.07
2023-02-26T22:45:17.088Z,1.10
2023-02-26T22:47:47.936Z,1.16
2023-02-26T22:50:17.004Z,1.16
2023-02-26T22:52:47.860Z,1.21
2023-02-26T22:55:16.411Z,1.28
2023-02-26T22:57:44.823Z,1.23
2023-02-26T23:00:18.656Z,1.15
2023-02-26T23:02:48.628Z,1.15
2023-02-26T23:05:19.439Z,1.20
2023-02-26T23:07:50.567Z,1.13
2023-02-26T23:10:20.692Z,0.96
2023-02-26T23:12:49.822Z,0.99
2023-02-26T23:15:22.083Z,0.99
2023-02-26T23:17:51.612Z,1.01
2023-02-26T23:20:19.968Z,1.04
2023-02-26T23:22:50.419Z,1.07
2023-02-26T23:25:18.733Z,1.03
2023-02-26T23:27:48.729Z,1.03
2023-02-26T23:30:17.250Z,0.99
2023-02-26T23:32:46.082Z,0.96
2023-02-26T23:35:15.876Z,0.92
2023-02-26T23:37:44.212Z,0.93
2023-02-26T23:40:15.826Z,0.89
2023-02-26T23:42:44.621Z,0.90
2023-02-26T23:45:14.078Z,0.73
2023-02-26T23:47:43.511Z,0.80
2023-02-26T23:50:13.035Z,0.82
2023-02-26T23:52:41.819Z,0.77
2023-02-26T23:55:12.166Z,0.78
2023-02-26T23:57:42.919Z,0.78
